createdAt,value
2023-01-13T00:01:28.624Z,0.93
2023-01-13T00:03:58.660Z,1.50
2023-01-13T00:06:27.948Z,1.58
2023-01-13T00:08:56.381Z,1.08
2023-01-13T00:11:26.751Z,0.77
2023-01-13T00:13:55.113Z,1.92
2023-01-13T00:16:23.872Z,2.35
2023-01-13T00:18:52.409Z,2.85
2023-01-13T00:21:24.383Z,2.42
2023-01-13T00:23:54.511Z,0.90
2023-01-13T00:26:24.719Z,1.13
2023-01-13T00:28:57.122Z,1.55
2023-01-13T00:31:25.953Z,1.15
2023-01-13T00:33:54.427Z,4.07
2023-01-13T00:36:24.665Z,2.25
2023-01-13T00:38:52.896Z,1.23
2023-01-13T00:41:23.690Z,0.73
2023-01-13T00:43:51.065Z,1.13
2023-01-13T00:46:21.518Z,1.38
2023-01-13T00:48:52.132Z,1.85
2023-01-13T00:51:23.159Z,0.85
2023-01-13T00:53:53.815Z,0.85
2023-01-13T00:56:39.751Z,1.20
2023-01-13T00:59:09.110Z,2.10
2023-01-13T01:01:37.960Z,0.88
2023-01-13T01:04:06.595Z,2.05
2023-01-13T01:06:35.487Z,1.10
2023-01-13T01:09:06.192Z,1.95
2023-01-13T01:11:35.096Z,1.65
2023-01-13T01:14:05.505Z,1.52
2023-01-13T01:16:35.007Z,0.70
2023-01-13T01:19:04.073Z,1.30
2023-01-13T01:21:33.870Z,1.50
2023-01-13T01:24:05.490Z,1.35
2023-01-13T01:26:34.441Z,1.08
2023-01-13T01:29:03.300Z,1.23
2023-01-13T01:31:34.617Z,4.07
2023-01-13T01:34:03.538Z,0.52
2023-01-13T01:36:32.231Z,1.35
2023-01-13T01:39:00.870Z,1.83
2023-01-13T01:41:33.358Z,0.73
2023-01-13T01:44:03.127Z,1.85
2023-01-13T01:46:34.733Z,1.02
2023-01-13T01:49:09.132Z,2.58
2023-01-13T01:51:40.044Z,1.00
2023-01-13T01:54:11.987Z,1.35
2023-01-13T01:56:45.849Z,1.25
2023-01-13T01:59:15.025Z,2.15
2023-01-13T02:01:45.399Z,5.35
2023-01-13T02:04:17.663Z,1.65
2023-01-13T02:06:48.584Z,0.77
2023-01-13T02:09:17.736Z,1.63
2023-01-13T02:12:04.543Z,2.42
2023-01-13T02:14:35.329Z,2.50
2023-01-13T02:17:20.064Z,0.50
2023-01-13T02:20:20.183Z,1.58
2023-01-13T02:23:08.125Z,2.17
2023-01-13T02:25:53.037Z,2.75
2023-01-13T02:29:04.199Z,1.83
2023-01-13T02:31:42.387Z,0.95
2023-01-13T02:34:13.644Z,1.52
2023-01-13T02:40:37.525Z,1.67
2023-01-13T02:43:30.076Z,1.73
2023-01-13T02:46:04.359Z,1.70
2023-01-13T02:48:36.651Z,0.93
2023-01-13T02:51:09.033Z,1.60
2023-01-13T02:53:42.429Z,2.00
2023-01-13T02:56:12.948Z,1.50
2023-01-13T02:58:42.783Z,2.10
2023-01-13T03:01:11.486Z,1.48
2023-01-13T03:03:41.020Z,1.40
2023-01-13T03:06:22.177Z,2.00
2023-01-13T03:08:52.978Z,1.73
2023-01-13T03:11:22.348Z,3.28
2023-01-13T03:14:09.685Z,1.38
2023-01-13T03:17:09.455Z,0.98
2023-01-13T03:19:45.932Z,1.33
2023-01-13T03:22:23.243Z,1.30
2023-01-13T03:24:56.536Z,1.85
2023-01-13T03:27:33.578Z,1.35
2023-01-13T03:30:08.062Z,1.65
2023-01-13T03:32:39.021Z,1.70
2023-01-13T03:35:16.405Z,3.20
2023-01-13T03:37:49.325Z,0.80
2023-01-13T03:40:23.501Z,1.08
2023-01-13T03:43:10.128Z,1.20
2023-01-13T03:45:41.940Z,2.13
2023-01-13T03:48:16.092Z,2.08
2023-01-13T03:50:50.710Z,1.30
2023-01-13T03:53:24.327Z,0.70
2023-01-13T03:55:59.300Z,1.33
2023-01-13T03:58:32.064Z,1.48
2023-01-13T04:01:03.901Z,1.25
2023-01-13T04:03:40.652Z,2.58
2023-01-13T04:06:19.354Z,1.45
2023-01-13T04:08:52.884Z,1.13
2023-01-13T04:11:28.953Z,0.82
2023-01-13T04:13:58.188Z,2.25
2023-01-13T04:16:27.328Z,1.27
2023-01-13T04:18:55.425Z,0.98
2023-01-13T04:21:25.465Z,1.08
2023-01-13T04:23:54.012Z,1.13
2023-01-13T04:26:23.511Z,0.70
2023-01-13T04:28:52.051Z,0.88
2023-01-13T04:31:20.729Z,1.17
2023-01-13T04:33:49.394Z,0.88
2023-01-13T04:36:17.537Z,1.35
2023-01-13T04:38:47.538Z,0.50
2023-01-13T04:41:15.604Z,0.55
2023-01-13T04:43:43.720Z,0.57
2023-01-13T04:46:12.500Z,1.13
2023-01-13T04:52:22.873Z,2.15
2023-01-13T05:01:59.080Z,1.08
2023-01-13T05:05:04.996Z,0.50
2023-01-13T05:15:11.802Z,2.20
2023-01-13T05:18:16.458Z,0.75
2023-01-13T05:21:34.039Z,1.63
2023-01-13T05:28:59.222Z,1.40
2023-01-13T05:35:02.257Z,1.10
2023-01-13T05:48:22.254Z,0.50
2023-01-13T05:51:29.540Z,2.30
2023-01-13T05:55:07.237Z,1.13
2023-01-13T05:58:42.923Z,0.93
2023-01-13T06:01:30.207Z,1.58
2023-01-13T06:07:42.753Z,1.37
2023-01-13T06:10:57.370Z,1.80
2023-01-13T06:13:45.661Z,1.80
2023-01-13T06:16:51.037Z,2.23
2023-01-13T06:19:47.539Z,1.13
2023-01-13T06:26:29.657Z,1.67
2023-01-13T06:29:24.678Z,1.17
2023-01-13T06:32:31.578Z,0.80
2023-01-13T06:35:45.511Z,1.00
2023-01-13T06:42:04.034Z,2.05
2023-01-13T06:45:09.268Z,1.50
2023-01-13T06:48:02.024Z,1.15
2023-01-13T06:51:06.082Z,0.70
2023-01-13T06:54:36.111Z,1.00
2023-01-13T07:00:50.129Z,1.38
2023-01-13T07:03:34.738Z,2.05
2023-01-13T07:06:47.044Z,2.63
2023-01-13T07:10:19.956Z,0.75
2023-01-13T07:13:27.743Z,1.88
2023-01-13T07:16:57.352Z,3.55
2023-01-13T07:26:41.134Z,3.33
2023-01-13T07:33:37.397Z,1.20
2023-01-13T07:36:37.085Z,2.00
2023-01-13T07:39:45.046Z,0.93
2023-01-13T07:43:01.217Z,3.17
2023-01-13T07:49:01.054Z,2.03
2023-01-13T07:51:56.981Z,2.95
2023-01-13T07:55:00.708Z,2.22
2023-01-13T07:58:06.614Z,0.90
2023-01-13T08:01:20.403Z,2.63
2023-01-13T08:04:18.459Z,2.42
2023-01-13T08:07:23.766Z,1.30
2023-01-13T08:10:55.491Z,1.45
2023-01-13T08:17:38.112Z,1.15
2023-01-13T08:20:41.655Z,1.75
2023-01-13T08:23:47.469Z,1.20
2023-01-13T08:27:12.264Z,2.65
2023-01-13T08:30:14.235Z,2.03
2023-01-13T08:33:20.401Z,6.47
2023-01-13T08:36:12.954Z,2.42
2023-01-13T08:42:16.465Z,1.25
2023-01-13T08:45:04.331Z,1.10
2023-01-13T08:48:18.567Z,1.40
2023-01-13T08:51:47.043Z,2.25
2023-01-13T08:57:36.279Z,1.45
2023-01-13T09:00:49.334Z,1.17
2023-01-13T09:04:15.202Z,1.65
2023-01-13T09:07:25.445Z,1.00
2023-01-13T09:13:31.009Z,1.23
2023-01-13T09:16:47.113Z,1.30
2023-01-13T09:19:53.224Z,1.70
2023-01-13T09:22:42.132Z,1.40
2023-01-13T09:25:56.824Z,1.88
2023-01-13T09:32:57.322Z,1.10
2023-01-13T09:35:48.263Z,1.40
2023-01-13T09:38:39.415Z,2.13
2023-01-13T09:41:44.924Z,2.63
2023-01-13T09:47:59.173Z,0.60
2023-01-13T09:51:07.069Z,0.73
2023-01-13T10:01:33.441Z,0.82
2023-01-13T10:07:49.668Z,0.65
2023-01-13T10:10:58.030Z,0.30
2023-01-13T10:13:42.054Z,0.57
2023-01-13T10:17:28.825Z,0.30
2023-01-13T10:26:28.322Z,0.28
2023-01-13T10:29:55.494Z,0.40
2023-01-13T10:33:19.199Z,0.70
2023-01-13T10:36:22.525Z,0.88
2023-01-13T10:39:31.743Z,0.47
2023-01-13T10:42:18.182Z,0.63
2023-01-13T10:45:26.520Z,0.40
2023-01-13T10:48:45.588Z,1.08
2023-01-13T10:51:46.235Z,0.50
2023-01-13T10:54:55.874Z,0.60
2023-01-13T11:00:57.177Z,0.77
2023-01-13T11:04:14.470Z,0.38
2023-01-13T11:10:28.933Z,1.20
2023-01-13T11:13:20.009Z,0.70
2023-01-13T11:16:01.357Z,1.50
2023-01-13T11:18:54.480Z,1.25
2023-01-13T11:21:45.107Z,0.40
2023-01-13T11:24:28.842Z,1.70
2023-01-13T11:27:02.430Z,2.00
2023-01-13T11:29:47.874Z,1.50
2023-01-13T11:32:27.851Z,0.80
2023-01-13T11:35:14.584Z,1.02
2023-01-13T11:37:50.321Z,1.50
2023-01-13T11:40:41.536Z,1.60
2023-01-13T11:43:22.689Z,1.10
2023-01-13T11:45:58.040Z,0.43
2023-01-13T11:48:39.287Z,1.15
2023-01-13T11:51:24.122Z,1.50
2023-01-13T11:54:11.690Z,1.33
2023-01-13T11:57:03.350Z,1.38
2023-01-13T12:00:09.998Z,0.77
2023-01-13T12:02:55.903Z,0.65
2023-01-13T12:05:37.424Z,2.05
2023-01-13T12:08:49.339Z,1.20
2023-01-13T12:11:26.108Z,1.55
2023-01-13T12:14:22.164Z,2.25
2023-01-13T12:17:12.215Z,1.55
2023-01-13T12:19:53.118Z,1.77
2023-01-13T12:22:30.677Z,1.23
2023-01-13T12:25:09.143Z,1.13
2023-01-13T12:27:56.730Z,1.08
2023-01-13T12:30:46.801Z,2.03
2023-01-13T12:33:28.384Z,2.15
2023-01-13T12:36:05.451Z,2.80
2023-01-13T12:38:52.440Z,1.95
2023-01-13T12:41:38.099Z,2.15
2023-01-13T12:44:18.630Z,1.58
2023-01-13T12:47:04.687Z,1.77
2023-01-13T12:49:48.842Z,1.70
2023-01-13T12:52:27.960Z,3.17
2023-01-13T12:55:23.136Z,3.30
2023-01-13T12:58:21.689Z,2.28
2023-01-13T13:01:12.047Z,1.50
2023-01-13T13:03:47.514Z,1.35
2023-01-13T13:06:26.987Z,2.55
2023-01-13T13:09:08.447Z,1.83
2023-01-13T13:12:05.551Z,1.70
2023-01-13T13:15:07.113Z,2.50
2023-01-13T13:18:04.544Z,3.22
2023-01-13T13:21:04.523Z,1.48
2023-01-13T13:24:18.779Z,2.50
2023-01-13T13:26:52.753Z,1.33
2023-01-13T13:29:49.099Z,1.40
2023-01-13T13:32:47.271Z,2.92
2023-01-13T13:35:55.142Z,2.08
2023-01-13T13:39:20.539Z,6.18
2023-01-13T13:42:24.974Z,11.95
2023-01-13T13:45:18.864Z,9.48
2023-01-13T13:47:56.013Z,6.10
2023-01-13T13:50:34.833Z,5.85
2023-01-13T13:53:13.706Z,2.78
2023-01-13T13:55:58.333Z,4.00
2023-01-13T13:58:34.558Z,2.13
2023-01-13T14:01:09.781Z,2.20
2023-01-13T14:03:45.693Z,2.70
2023-01-13T14:06:30.270Z,4.70
2023-01-13T14:09:03.843Z,4.18
2023-01-13T14:11:43.300Z,3.20
2023-01-13T14:14:23.191Z,2.83
2023-01-13T14:17:06.875Z,2.58
2023-01-13T14:19:45.982Z,3.10
2023-01-13T14:22:18.728Z,2.75
2023-01-13T14:25:05.618Z,2.38
2023-01-13T14:27:47.347Z,2.75
2023-01-13T14:30:23.469Z,3.88
2023-01-13T14:32:57.015Z,3.75
2023-01-13T14:35:31.009Z,2.65
2023-01-13T14:38:10.105Z,2.45
2023-01-13T14:40:49.417Z,4.75
2023-01-13T14:43:26.682Z,2.55
2023-01-13T14:46:03.366Z,6.15
2023-01-13T14:48:42.289Z,3.85
2023-01-13T14:51:27.484Z,3.15
2023-01-13T14:54:03.881Z,3.10
2023-01-13T14:56:44.653Z,3.78
2023-01-13T14:59:38.915Z,3.25
2023-01-13T15:02:46.483Z,3.03
2023-01-13T15:05:49.041Z,4.07
2023-01-13T15:08:44.038Z,5.75
2023-01-13T15:11:32.289Z,5.57
2023-01-13T15:14:08.761Z,4.32
2023-01-13T15:16:48.909Z,4.30
2023-01-13T15:19:22.843Z,6.53
2023-01-13T15:21:56.890Z,5.07
2023-01-13T15:24:28.674Z,3.13
2023-01-13T15:27:01.600Z,2.07
2023-01-13T15:29:34.872Z,3.60
2023-01-13T15:32:13.550Z,2.40
2023-01-13T15:34:49.369Z,2.93
2023-01-13T15:37:19.817Z,4.32
2023-01-13T15:39:54.849Z,3.13
2023-01-13T15:42:46.297Z,3.20
2023-01-13T15:45:36.672Z,2.30
2023-01-13T15:48:19.309Z,3.03
2023-01-13T15:50:51.855Z,2.73
2023-01-13T15:53:30.304Z,2.73
2023-01-13T15:56:21.077Z,3.73
2023-01-13T15:58:59.138Z,4.70
2023-01-13T16:01:36.757Z,2.93
2023-01-13T16:04:17.551Z,5.23
2023-01-13T16:06:50.675Z,3.42
2023-01-13T16:09:21.986Z,2.60
2023-01-13T16:12:04.032Z,3.65
2023-01-13T16:14:40.606Z,3.75
2023-01-13T16:17:18.329Z,3.40
2023-01-13T16:19:57.927Z,4.33
2023-01-13T16:22:29.563Z,3.70
2023-01-13T16:25:16.097Z,3.13
2023-01-13T16:27:52.820Z,3.77
2023-01-13T16:30:30.219Z,3.67
2023-01-13T16:33:04.143Z,2.77
2023-01-13T16:36:09.701Z,2.50
2023-01-13T16:38:38.044Z,3.90
2023-01-13T16:41:10.986Z,3.10
2023-01-13T16:43:59.169Z,2.83
2023-01-13T16:46:35.814Z,2.83
2023-01-13T16:49:41.521Z,6.05
2023-01-13T16:52:17.480Z,2.20
2023-01-13T16:54:57.802Z,2.50
2023-01-13T16:57:33.996Z,4.97
2023-01-13T17:00:05.909Z,2.93
2023-01-13T17:02:41.545Z,2.87
2023-01-13T17:05:20.785Z,3.83
2023-01-13T17:07:58.912Z,2.23
2023-01-13T17:10:31.846Z,3.77
2023-01-13T17:13:14.758Z,4.05
2023-01-13T17:15:50.708Z,3.27
2023-01-13T17:18:20.566Z,3.70
2023-01-13T17:20:59.316Z,3.30
2023-01-13T17:23:32.897Z,3.25
2023-01-13T17:26:09.768Z,5.87
2023-01-13T17:28:51.923Z,5.97
2023-01-13T17:31:32.537Z,4.40
2023-01-13T17:34:27.492Z,5.53
2023-01-13T17:37:03.392Z,5.60
2023-01-13T17:39:49.881Z,8.23
2023-01-13T17:42:33.873Z,4.43
2023-01-13T17:45:14.591Z,7.53
2023-01-13T17:47:57.054Z,5.80
2023-01-13T17:50:30.221Z,5.32
2023-01-13T17:53:05.000Z,3.97
2023-01-13T17:55:39.362Z,2.83
2023-01-13T18:01:01.390Z,4.90
2023-01-13T18:03:45.605Z,5.60
2023-01-13T18:06:28.147Z,4.90
2023-01-13T18:09:11.163Z,4.63
2023-01-13T18:11:59.198Z,4.80
2023-01-13T18:14:35.148Z,5.97
2023-01-13T18:17:05.946Z,5.27
2023-01-13T18:19:54.861Z,6.75
2023-01-13T18:22:44.101Z,5.00
2023-01-13T18:25:44.642Z,3.70
2023-01-13T18:28:17.994Z,5.53
2023-01-13T18:31:06.184Z,4.33
2023-01-13T18:34:01.419Z,4.53
2023-01-13T18:36:35.613Z,6.67
2023-01-13T18:39:07.497Z,4.13
2023-01-13T18:42:03.704Z,6.10
2023-01-13T18:44:38.656Z,5.80
2023-01-13T18:47:15.252Z,3.03
2023-01-13T18:49:51.826Z,3.22
2023-01-13T18:52:32.623Z,3.10
2023-01-13T18:55:09.200Z,4.27
2023-01-13T18:57:48.778Z,3.63
2023-01-13T19:00:41.040Z,4.67
2023-01-13T19:03:16.882Z,5.17
2023-01-13T19:05:53.408Z,5.40
2023-01-13T19:08:28.267Z,2.63
2023-01-13T19:11:09.876Z,4.03
2023-01-13T19:13:42.148Z,3.20
2023-01-13T19:16:13.802Z,4.13
2023-01-13T19:18:50.058Z,3.70
2023-01-13T19:21:28.239Z,4.87
2023-01-13T19:24:03.690Z,2.65
2023-01-13T19:26:37.417Z,5.47
2023-01-13T19:29:24.061Z,5.70
2023-01-13T19:31:59.843Z,5.47
2023-01-13T19:34:32.751Z,5.00
2023-01-13T19:37:09.600Z,3.57
2023-01-13T19:39:43.706Z,3.17
2023-01-13T19:42:39.434Z,4.43
2023-01-13T19:45:31.909Z,3.63
2023-01-13T19:48:11.286Z,3.25
2023-01-13T19:50:54.543Z,4.83
2023-01-13T19:53:30.929Z,2.25
2023-01-13T19:56:06.575Z,5.63
2023-01-13T19:58:43.411Z,4.50
2023-01-13T20:01:16.887Z,4.18
2023-01-13T20:04:00.825Z,3.40
2023-01-13T20:06:33.781Z,4.68
2023-01-13T20:09:09.411Z,2.13
2023-01-13T20:11:53.600Z,7.25
2023-01-13T20:14:40.991Z,4.93
2023-01-13T20:17:29.066Z,4.88
2023-01-13T20:20:06.195Z,5.00
2023-01-13T20:22:46.089Z,5.40
2023-01-13T20:25:25.233Z,6.53
2023-01-13T20:28:10.807Z,6.80
2023-01-13T20:30:44.125Z,4.53
2023-01-13T20:33:19.619Z,3.95
2023-01-13T20:36:12.149Z,7.45
2023-01-13T20:38:45.597Z,4.93
2023-01-13T20:41:37.522Z,4.25
2023-01-13T20:44:19.378Z,4.13
2023-01-13T20:46:59.960Z,4.88
2023-01-13T20:49:31.501Z,4.88
2023-01-13T20:52:15.841Z,3.75
2023-01-13T20:54:57.125Z,4.37
2023-01-13T20:58:02.251Z,6.85
2023-01-13T21:00:39.728Z,5.32
2023-01-13T21:03:15.628Z,4.55
2023-01-13T21:05:47.823Z,5.83
2023-01-13T21:08:35.051Z,5.60
2023-01-13T21:11:15.498Z,4.53
2023-01-13T21:14:04.885Z,5.80
2023-01-13T21:17:04.645Z,3.87
2023-01-13T21:19:49.209Z,4.25
2023-01-13T21:22:44.958Z,2.65
2023-01-13T21:25:24.387Z,5.93
2023-01-13T21:28:12.242Z,6.32
2023-01-13T21:30:54.935Z,7.47
2023-01-13T21:33:35.377Z,5.07
2023-01-13T21:36:11.409Z,4.10
2023-01-13T21:38:43.978Z,3.03
2023-01-13T21:41:42.120Z,5.00
2023-01-13T21:44:42.783Z,5.18
2023-01-13T21:47:40.241Z,5.90
2023-01-13T21:50:14.769Z,5.23
2023-01-13T21:53:00.360Z,5.72
2023-01-13T21:55:33.325Z,4.50
2023-01-13T21:58:26.245Z,3.92
2023-01-13T22:01:05.661Z,5.15
2023-01-13T22:03:52.396Z,3.07
2023-01-13T22:06:24.030Z,2.33
2023-01-13T22:09:10.183Z,5.40
2023-01-13T22:11:51.720Z,3.65
2023-01-13T22:14:26.821Z,4.80
2023-01-13T22:17:09.325Z,3.90
2023-01-13T22:19:46.390Z,4.77
2023-01-13T22:22:20.582Z,3.92
2023-01-13T22:24:59.642Z,2.95
2023-01-13T22:27:31.629Z,3.92
2023-01-13T22:30:08.647Z,3.10
2023-01-13T22:32:46.099Z,6.47
2023-01-13T22:35:20.768Z,3.63
2023-01-13T22:37:51.270Z,4.73
2023-01-13T22:40:25.005Z,2.35
2023-01-13T22:43:00.887Z,2.85
2023-01-13T22:45:40.403Z,4.63
2023-01-13T22:48:18.525Z,3.67
2023-01-13T22:51:00.977Z,6.35
2023-01-13T22:53:40.738Z,2.07
2023-01-13T22:56:26.613Z,3.83
2023-01-13T22:59:17.540Z,2.80
2023-01-13T23:02:40.233Z,4.83
2023-01-13T23:08:58.284Z,2.43
2023-01-13T23:11:47.845Z,2.60
2023-01-13T23:17:42.023Z,3.27
2023-01-13T23:23:37.181Z,4.47
2023-01-13T23:26:41.338Z,4.87
2023-01-13T23:29:31.527Z,5.30
2023-01-13T23:32:18.734Z,5.80
2023-01-13T23:35:15.083Z,2.37
2023-01-13T23:38:29.005Z,4.10
2023-01-13T23:41:22.301Z,4.13
2023-01-13T23:44:29.525Z,5.37
2023-01-13T23:47:16.392Z,5.07
2023-01-13T23:50:14.359Z,4.63
2023-01-13T23:53:09.060Z,2.57
2023-01-13T23:56:01.720Z,3.47
2023-01-13T23:59:04.032Z,3.83
